createdAt,value
2022-09-10T00:00:44.694Z,98.00
2022-09-10T00:01:49.166Z,97.90
2022-09-10T00:02:51.025Z,98.00
2022-09-10T00:03:54.822Z,98.00
2022-09-10T00:04:56.733Z,98.10
2022-09-10T00:05:58.530Z,98.00
2022-09-10T00:07:00.538Z,98.00
2022-09-10T00:08:04.522Z,98.00
2022-09-10T00:09:07.627Z,98.00
2022-09-10T00:10:10.101Z,98.10
2022-09-10T00:11:12.299Z,98.00
2022-09-10T00:12:18.997Z,98.10
2022-09-10T00:13:22.688Z,98.10
2022-09-10T00:14:24.696Z,98.10
2022-09-10T00:15:26.421Z,98.00
2022-09-10T00:16:29.050Z,98.00
2022-09-10T00:17:32.531Z,98.00
2022-09-10T00:18:34.935Z,97.90
2022-09-10T00:19:36.709Z,98.00
2022-09-10T00:20:53.518Z,98.00
2022-09-10T00:21:55.242Z,98.00
2022-09-10T00:22:56.953Z,98.00
2022-09-10T00:23:59.247Z,97.90
2022-09-10T00:25:02.358Z,98.00
2022-09-10T00:26:43.468Z,98.00
2022-09-10T00:27:45.370Z,97.90
2022-09-10T00:28:47.780Z,98.00
2022-09-10T00:29:53.431Z,97.90
2022-09-10T00:30:56.221Z,97.90
2022-09-10T00:31:58.126Z,97.90
2022-09-10T00:33:00.358Z,97.80
2022-09-10T00:34:05.950Z,97.90
2022-09-10T00:35:08.431Z,98.00
2022-09-10T00:36:22.418Z,97.90
2022-09-10T00:37:24.304Z,97.90
2022-09-10T00:38:28.339Z,97.90
2022-09-10T00:39:30.180Z,97.90
2022-09-10T00:40:32.267Z,97.80
2022-09-10T00:41:36.775Z,97.70
2022-09-10T00:42:41.752Z,97.80
2022-09-10T00:44:02.313Z,97.70
2022-09-10T00:45:04.960Z,97.70
2022-09-10T00:46:06.770Z,97.80
2022-09-10T00:47:11.695Z,97.90
2022-09-10T00:48:18.358Z,97.80
2022-09-10T00:49:31.422Z,97.80
2022-09-10T00:50:39.562Z,97.90
2022-09-10T00:51:42.089Z,98.00
2022-09-10T00:52:45.245Z,98.10
2022-09-10T00:53:47.231Z,98.20
2022-09-10T00:54:49.629Z,98.20
2022-09-10T00:55:54.752Z,98.30
2022-09-10T00:57:01.153Z,98.30
2022-09-10T00:58:05.216Z,98.30
2022-09-10T00:59:09.919Z,98.30
2022-09-10T01:00:14.136Z,98.40
2022-09-10T01:01:19.172Z,98.40
2022-09-10T01:02:21.754Z,98.40
2022-09-10T01:03:25.816Z,98.40
2022-09-10T01:04:28.917Z,98.80
2022-09-10T01:05:30.859Z,98.70
2022-09-10T01:06:33.620Z,98.80
2022-09-10T01:07:35.434Z,98.70
2022-09-10T01:08:37.296Z,98.70
2022-09-10T01:09:40.408Z,98.70
2022-09-10T01:10:58.556Z,98.70
2022-09-10T01:12:24.773Z,98.60
2022-09-10T01:13:41.650Z,98.60
2022-09-10T01:15:15.794Z,98.60
2022-09-10T01:16:48.612Z,98.70
2022-09-10T01:18:00.060Z,98.80
2022-09-10T01:19:32.817Z,99.10
2022-09-10T01:21:08.634Z,99.20
2022-09-10T01:22:27.501Z,99.10
2022-09-10T01:23:59.677Z,99.10
2022-09-10T01:25:29.344Z,99.00
2022-09-10T01:26:55.567Z,99.10
2022-09-10T01:28:03.029Z,99.20
2022-09-10T01:29:20.860Z,99.30
2022-09-10T01:30:43.082Z,99.20
2022-09-10T01:31:48.045Z,99.20
2022-09-10T01:33:14.207Z,99.10
2022-09-10T01:34:29.771Z,99.10
2022-09-10T01:35:37.435Z,99.10
2022-09-10T01:36:42.859Z,99.20
2022-09-10T01:37:49.303Z,99.30
2022-09-10T01:38:52.387Z,99.30
2022-09-10T01:39:57.985Z,99.40
2022-09-10T01:41:00.302Z,99.40
2022-09-10T01:42:06.934Z,99.40
2022-09-10T01:43:11.733Z,99.40
2022-09-10T01:44:58.161Z,99.50
2022-09-10T01:46:19.851Z,99.30
2022-09-10T01:47:48.474Z,99.50
2022-09-10T01:49:11.122Z,99.50
2022-09-10T01:50:13.331Z,99.50
2022-09-10T01:51:41.565Z,99.50
2022-09-10T01:52:54.638Z,99.50
2022-09-10T01:54:25.368Z,99.50
2022-09-10T01:56:04.437Z,99.60
2022-09-10T01:57:29.830Z,99.50
2022-09-10T01:58:40.618Z,99.60
2022-09-10T02:00:02.727Z,99.70
2022-09-10T02:01:33.949Z,99.70
2022-09-10T02:02:55.151Z,99.60
2022-09-10T02:04:00.893Z,99.70
2022-09-10T02:05:03.752Z,99.80
2022-09-10T02:06:10.387Z,99.80
2022-09-10T02:07:14.345Z,99.90
2022-09-10T02:08:39.653Z,99.90
2022-09-10T02:09:42.501Z,99.80
2022-09-10T02:11:06.291Z,99.90
2022-09-10T02:12:19.110Z,99.80
2022-09-10T02:13:34.395Z,99.80
2022-09-10T02:14:55.408Z,99.80
2022-09-10T02:16:10.631Z,99.90
2022-09-10T02:17:18.090Z,99.80
2022-09-10T02:18:20.984Z,99.80
2022-09-10T02:19:23.639Z,99.80
2022-09-10T02:20:27.427Z,99.80
2022-09-10T02:21:29.511Z,99.80
2022-09-10T02:22:36.290Z,99.90
2022-09-10T02:23:45.003Z,99.80
2022-09-10T02:24:50.844Z,99.70
2022-09-10T02:25:54.034Z,99.70
2022-09-10T02:27:01.786Z,99.70
2022-09-10T02:28:05.926Z,99.80
2022-09-10T02:29:09.511Z,99.80
2022-09-10T02:30:13.753Z,99.90
2022-09-10T02:31:17.629Z,99.90
2022-09-10T02:32:20.021Z,99.80
2022-09-10T02:33:22.091Z,99.80
2022-09-10T02:34:24.627Z,99.90
2022-09-10T02:35:26.697Z,99.90
2022-09-10T02:36:29.476Z,99.90
2022-09-10T02:37:31.488Z,99.80
2022-09-10T02:38:35.212Z,99.80
2022-09-10T02:39:37.158Z,99.80
2022-09-10T02:40:39.821Z,99.90
2022-09-10T02:41:42.277Z,99.90
2022-09-10T02:42:46.689Z,99.90
2022-09-10T02:43:53.133Z,99.90
2022-09-10T02:44:56.629Z,99.90
2022-09-10T02:45:59.488Z,99.90
2022-09-10T02:47:01.491Z,99.90
2022-09-10T02:48:04.332Z,99.90
2022-09-10T02:49:07.177Z,99.90
2022-09-10T02:50:12.271Z,99.90
2022-09-10T02:51:14.246Z,99.80
2022-09-10T02:52:16.080Z,99.70
2022-09-10T02:53:18.444Z,99.70
2022-09-10T02:54:20.476Z,99.80
2022-09-10T02:55:22.305Z,99.80
2022-09-10T02:56:24.116Z,99.80
2022-09-10T02:57:26.808Z,99.80
2022-09-10T02:58:34.258Z,99.80
2022-09-10T02:59:37.634Z,99.80
2022-09-10T03:00:40.756Z,99.90
2022-09-10T03:01:43.841Z,99.90
2022-09-10T03:02:47.931Z,99.90
2022-09-10T03:03:55.055Z,99.90
2022-09-10T03:04:56.968Z,99.90
2022-09-10T03:05:59.838Z,99.90
2022-09-10T03:07:01.643Z,99.90
2022-09-10T03:08:04.596Z,99.80
2022-09-10T03:09:06.515Z,99.80
2022-09-10T03:10:08.619Z,99.90
2022-09-10T03:11:12.989Z,99.90
2022-09-10T03:12:16.324Z,99.80
2022-09-10T03:13:18.219Z,99.80
2022-09-10T03:14:23.334Z,99.90
2022-09-10T03:15:25.502Z,99.90
2022-09-10T03:16:27.363Z,99.80
2022-09-10T03:17:30.617Z,99.80
2022-09-10T03:18:32.538Z,99.90
2022-09-10T03:19:34.308Z,99.90
2022-09-10T03:20:36.469Z,99.90
2022-09-10T03:21:41.576Z,99.90
2022-09-10T03:22:45.296Z,99.90
2022-09-10T03:23:56.985Z,99.90
2022-09-10T03:25:02.038Z,99.80
2022-09-10T03:26:04.485Z,99.80
2022-09-10T03:27:06.928Z,99.90
2022-09-10T03:28:09.676Z,99.90
2022-09-10T03:29:12.710Z,99.90
2022-09-10T03:30:15.782Z,99.90
2022-09-10T03:31:18.244Z,99.90
2022-09-10T03:32:23.183Z,99.90
2022-09-10T03:33:25.127Z,99.90
2022-09-10T03:34:28.549Z,99.90
2022-09-10T03:35:30.328Z,99.90
2022-09-10T03:36:32.469Z,99.90
2022-09-10T03:37:34.606Z,99.90
2022-09-10T03:38:37.254Z,99.80
2022-09-10T03:39:39.157Z,99.80
2022-09-10T03:40:41.683Z,99.80
2022-09-10T03:41:45.923Z,99.70
2022-09-10T03:42:49.702Z,99.80
2022-09-10T03:43:51.528Z,99.80
2022-09-10T03:44:53.242Z,99.80
2022-09-10T03:45:55.339Z,99.80
2022-09-10T03:46:57.162Z,99.80
2022-09-10T03:47:59.366Z,99.80
2022-09-10T03:49:02.336Z,99.80
2022-09-10T03:50:05.800Z,99.80
2022-09-10T03:51:07.598Z,99.90
2022-09-10T03:52:12.685Z,99.70
2022-09-10T03:53:18.229Z,99.80
2022-09-10T03:54:20.790Z,99.70
2022-09-10T03:55:23.278Z,99.70
2022-09-10T03:56:25.818Z,99.70
2022-09-10T03:57:27.571Z,99.80
2022-09-10T03:58:29.532Z,99.80
2022-09-10T03:59:32.124Z,99.80
2022-09-10T04:00:36.140Z,99.80
2022-09-10T04:01:37.917Z,99.80
2022-09-10T04:02:41.869Z,99.80
2022-09-10T04:03:45.909Z,99.80
2022-09-10T04:04:47.786Z,99.80
2022-09-10T04:05:50.632Z,99.80
2022-09-10T04:06:54.172Z,99.80
2022-09-10T04:07:59.073Z,99.80
2022-09-10T04:09:01.680Z,99.60
2022-09-10T04:10:04.540Z,99.50
2022-09-10T04:11:06.839Z,99.60
2022-09-10T04:12:08.936Z,99.60
2022-09-10T04:13:11.635Z,99.60
2022-09-10T04:14:15.570Z,99.70
2022-09-10T04:15:17.869Z,99.70
2022-09-10T04:16:21.333Z,99.70
2022-09-10T04:17:24.903Z,99.70
2022-09-10T04:18:28.110Z,99.70
2022-09-10T04:19:29.973Z,99.70
2022-09-10T04:20:32.218Z,99.80
2022-09-10T04:21:41.899Z,99.80
2022-09-10T04:22:43.713Z,99.70
2022-09-10T04:23:45.765Z,99.80
2022-09-10T04:24:47.507Z,99.80
2022-09-10T04:25:49.649Z,99.80
2022-09-10T04:26:52.245Z,99.80
2022-09-10T04:27:54.652Z,99.70
2022-09-10T04:28:56.541Z,99.70
2022-09-10T04:29:58.582Z,99.80
2022-09-10T04:31:00.355Z,99.70
2022-09-10T04:32:03.295Z,99.70
2022-09-10T04:33:07.829Z,99.70
2022-09-10T04:34:10.554Z,99.70
2022-09-10T04:35:15.332Z,99.80
2022-09-10T04:36:17.352Z,99.80
2022-09-10T04:37:19.643Z,99.80
2022-09-10T04:38:22.502Z,99.80
2022-09-10T04:39:25.498Z,99.80
2022-09-10T04:40:27.466Z,99.80
2022-09-10T04:41:29.633Z,99.70
2022-09-10T04:42:32.302Z,99.50
2022-09-10T04:43:34.037Z,99.50
2022-09-10T04:44:36.701Z,99.50
2022-09-10T04:45:39.288Z,99.60
2022-09-10T04:46:42.424Z,99.70
2022-09-10T04:47:46.818Z,99.70
2022-09-10T04:48:48.763Z,99.80
2022-09-10T04:49:54.022Z,99.80
2022-09-10T04:51:15.377Z,99.80
2022-09-10T04:52:22.761Z,99.80
2022-09-10T04:53:25.601Z,99.90
2022-09-10T04:54:27.601Z,99.80
2022-09-10T04:55:31.826Z,99.70
2022-09-10T04:56:34.785Z,99.60
2022-09-10T04:57:37.224Z,99.60
2022-09-10T04:58:41.087Z,99.70
2022-09-10T04:59:44.449Z,99.70
2022-09-10T05:00:46.791Z,99.80
2022-09-10T05:01:51.457Z,99.70
2022-09-10T05:02:53.689Z,99.80
2022-09-10T05:03:55.699Z,99.80
2022-09-10T05:04:58.207Z,99.80
2022-09-10T05:06:01.724Z,99.70
2022-09-10T05:07:03.550Z,99.70
2022-09-10T05:08:08.209Z,99.60
2022-09-10T05:09:11.507Z,99.60
2022-09-10T05:10:15.509Z,99.90
2022-09-10T05:11:19.880Z,99.70
2022-09-10T05:12:23.676Z,99.70
2022-09-10T05:13:25.604Z,99.80
2022-09-10T05:14:28.103Z,99.80
2022-09-10T05:15:29.983Z,99.80
2022-09-10T05:16:31.848Z,99.60
2022-09-10T05:17:34.186Z,99.70
2022-09-10T05:18:36.231Z,99.60
2022-09-10T05:19:38.497Z,99.60
2022-09-10T05:20:45.851Z,99.60
2022-09-10T05:21:51.053Z,99.70
2022-09-10T05:22:53.002Z,99.70
2022-09-10T05:23:56.128Z,99.60
2022-09-10T05:24:58.584Z,99.60
2022-09-10T05:26:00.366Z,99.50
2022-09-10T05:27:03.344Z,99.50
2022-09-10T05:28:05.929Z,99.50
2022-09-10T05:29:07.890Z,99.50
2022-09-10T05:30:10.298Z,99.60
2022-09-10T05:31:12.864Z,99.60
2022-09-10T05:32:15.542Z,99.60
2022-09-10T05:33:17.344Z,99.50
2022-09-10T05:34:19.247Z,99.60
2022-09-10T05:35:21.036Z,99.60
2022-09-10T05:36:24.317Z,99.70
2022-09-10T05:37:26.531Z,99.70
2022-09-10T05:38:28.623Z,99.80
2022-09-10T05:39:30.647Z,99.80
2022-09-10T05:40:32.424Z,99.90
2022-09-10T05:41:34.455Z,99.90
2022-09-10T05:42:36.354Z,99.90
2022-09-10T05:43:38.314Z,99.90
2022-09-10T05:44:41.129Z,99.80
2022-09-10T05:45:43.103Z,99.80
2022-09-10T05:46:45.286Z,99.80
2022-09-10T05:47:50.432Z,99.90
2022-09-10T05:48:57.177Z,99.90
2022-09-10T05:50:00.167Z,99.80
2022-09-10T05:51:03.128Z,99.70
2022-09-10T05:52:05.037Z,99.70
2022-09-10T05:53:06.911Z,99.60
2022-09-10T05:54:08.681Z,99.60
2022-09-10T05:55:12.066Z,99.60
2022-09-10T05:56:14.278Z,99.60
2022-09-10T05:57:18.164Z,99.70
2022-09-10T05:58:20.970Z,99.70
2022-09-10T05:59:23.529Z,99.60
2022-09-10T06:00:27.227Z,99.60
2022-09-10T06:01:34.995Z,99.60
2022-09-10T06:02:39.379Z,99.70
2022-09-10T06:03:42.399Z,99.80
2022-09-10T06:04:44.405Z,99.80
2022-09-10T06:05:52.933Z,99.80
2022-09-10T06:07:02.632Z,99.80
2022-09-10T06:08:08.563Z,99.80
2022-09-10T06:09:13.214Z,99.70
2022-09-10T06:10:33.458Z,99.70
2022-09-10T06:11:35.925Z,99.70
2022-09-10T06:12:38.227Z,99.70
2022-09-10T06:13:42.239Z,99.70
2022-09-10T06:14:44.145Z,99.90
2022-09-10T06:15:46.274Z,99.90
2022-09-10T06:16:49.993Z,99.90
2022-09-10T06:17:56.550Z,99.90
2022-09-10T06:18:59.625Z,99.90
2022-09-10T06:20:02.307Z,99.90
2022-09-10T06:21:11.678Z,99.90
2022-09-10T06:22:14.646Z,99.90
2022-09-10T06:23:21.611Z,99.90
2022-09-10T06:24:25.886Z,99.90
2022-09-10T06:25:31.139Z,99.90
2022-09-10T06:26:32.944Z,99.90
2022-09-10T06:27:40.811Z,99.90
2022-09-10T06:28:43.396Z,99.90
2022-09-10T06:29:47.308Z,99.90
2022-09-10T06:30:49.330Z,99.80
2022-09-10T06:31:51.075Z,99.70
2022-09-10T06:32:52.854Z,99.70
2022-09-10T06:33:54.844Z,99.60
2022-09-10T06:35:00.345Z,99.50
2022-09-10T06:36:03.637Z,99.50
2022-09-10T06:37:06.263Z,99.50
2022-09-10T06:38:10.941Z,99.50
2022-09-10T06:39:12.704Z,99.50
2022-09-10T06:40:21.499Z,99.50
2022-09-10T06:41:24.539Z,99.60
2022-09-10T06:42:35.747Z,99.70
2022-09-10T06:43:49.569Z,99.80
2022-09-10T06:45:00.284Z,99.90
2022-09-10T06:46:57.203Z,99.70
2022-09-10T06:49:25.163Z,99.80
2022-09-10T06:50:27.278Z,99.70
2022-09-10T06:51:32.854Z,99.70
2022-09-10T06:52:35.718Z,99.90
2022-09-10T06:53:42.834Z,99.70
2022-09-10T06:54:48.123Z,99.70
2022-09-10T06:56:10.967Z,99.60
2022-09-10T06:57:13.915Z,99.60
2022-09-10T06:58:16.828Z,99.60
2022-09-10T06:59:18.631Z,99.70
2022-09-10T07:00:24.346Z,99.70
2022-09-10T07:01:29.306Z,99.60
2022-09-10T07:02:34.272Z,99.70
2022-09-10T07:03:36.799Z,99.60
2022-09-10T07:04:38.590Z,99.80
2022-09-10T07:05:40.628Z,99.90
2022-09-10T07:06:42.781Z,99.90
2022-09-10T07:07:47.640Z,99.90
2022-09-10T07:08:55.193Z,99.70
2022-09-10T07:09:57.010Z,99.80
2022-09-10T07:11:04.838Z,99.90
2022-09-10T07:12:09.384Z,99.80
2022-09-10T07:13:13.134Z,99.70
2022-09-10T07:14:15.730Z,99.50
2022-09-10T07:15:17.607Z,99.40
2022-09-10T07:16:24.314Z,99.20
2022-09-10T07:17:31.618Z,99.20
2022-09-10T07:18:36.505Z,99.30
2022-09-10T07:19:38.977Z,99.30
2022-09-10T07:20:48.046Z,99.00
2022-09-10T07:21:50.618Z,99.00
2022-09-10T07:22:53.387Z,99.10
2022-09-10T07:24:01.370Z,99.10
2022-09-10T07:25:03.784Z,99.20
2022-09-10T07:26:17.316Z,99.00
2022-09-10T07:27:22.733Z,98.80
2022-09-10T07:28:24.527Z,98.80
2022-09-10T07:29:28.329Z,98.70
2022-09-10T07:30:30.941Z,98.70
2022-09-10T07:31:35.555Z,98.80
2022-09-10T07:32:43.251Z,98.90
2022-09-10T07:33:50.957Z,99.00
2022-09-10T07:34:53.326Z,99.10
2022-09-10T07:35:56.640Z,99.20
2022-09-10T07:36:58.857Z,99.10
2022-09-10T07:38:00.611Z,99.10
2022-09-10T07:39:04.111Z,99.10
2022-09-10T07:40:10.757Z,99.10
2022-09-10T07:41:15.319Z,99.10
2022-09-10T07:42:17.931Z,98.90
2022-09-10T07:43:20.983Z,98.80
2022-09-10T07:44:23.104Z,98.60
2022-09-10T07:45:25.935Z,98.50
2022-09-10T07:46:28.472Z,98.70
2022-09-10T07:47:33.267Z,98.60
2022-09-10T07:48:35.597Z,98.70
2022-09-10T07:49:38.527Z,98.80
2022-09-10T07:50:41.819Z,98.80
2022-09-10T07:51:43.581Z,98.70
2022-09-10T07:52:45.817Z,98.70
2022-09-10T07:53:54.175Z,98.70
2022-09-10T07:54:56.596Z,98.50
2022-09-10T07:56:00.964Z,98.30
2022-09-10T07:57:05.443Z,98.20
2022-09-10T07:58:08.625Z,98.30
2022-09-10T07:59:13.315Z,98.30
2022-09-10T08:00:20.575Z,98.30
2022-09-10T08:01:26.845Z,98.50
2022-09-10T08:02:28.877Z,98.60
2022-09-10T08:03:36.579Z,98.80
2022-09-10T08:04:39.645Z,98.80
2022-09-10T08:05:46.977Z,98.60
2022-09-10T08:06:49.162Z,98.70
2022-09-10T08:07:57.128Z,98.70
2022-09-10T08:09:04.176Z,98.70
2022-09-10T08:10:09.551Z,98.70
2022-09-10T08:11:16.215Z,97.70
2022-09-10T08:12:18.850Z,97.20
2022-09-10T08:13:22.835Z,97.60
2022-09-10T08:14:24.671Z,97.60
2022-09-10T08:15:29.933Z,97.70
2022-09-10T08:16:36.254Z,97.60
2022-09-10T08:17:45.738Z,97.50
2022-09-10T08:18:48.737Z,97.50
2022-09-10T08:19:51.386Z,97.20
2022-09-10T08:20:54.618Z,97.10
2022-09-10T08:21:57.183Z,97.00
2022-09-10T08:23:05.698Z,97.00
2022-09-10T08:24:08.692Z,96.90
2022-09-10T08:25:10.569Z,96.80
2022-09-10T08:26:12.642Z,96.80
2022-09-10T08:27:16.105Z,96.60
2022-09-10T08:28:22.452Z,96.50
2022-09-10T08:29:28.381Z,96.60
2022-09-10T08:30:32.877Z,96.50
2022-09-10T08:31:35.156Z,96.50
2022-09-10T08:32:42.398Z,96.60
2022-09-10T08:33:52.737Z,96.70
2022-09-10T08:34:55.879Z,96.70
2022-09-10T08:35:59.597Z,96.70
2022-09-10T08:37:03.345Z,96.70
2022-09-10T08:38:07.164Z,96.70
2022-09-10T08:39:09.005Z,96.90
2022-09-10T08:40:13.406Z,96.80
2022-09-10T08:41:32.315Z,96.80
2022-09-10T08:42:46.055Z,96.80
2022-09-10T08:44:03.360Z,96.80
2022-09-10T08:45:29.912Z,96.90
2022-09-10T08:46:41.471Z,97.00
2022-09-10T08:48:02.450Z,97.20
2022-09-10T08:49:14.710Z,97.20
2022-09-10T08:50:36.119Z,97.20
2022-09-10T08:52:19.913Z,97.20
2022-09-10T08:53:29.406Z,96.70
2022-09-10T08:54:47.203Z,96.40
2022-09-10T08:55:50.676Z,96.60
2022-09-10T08:56:56.389Z,96.70
2022-09-10T08:58:22.158Z,96.80
2022-09-10T08:59:43.069Z,97.00
2022-09-10T09:00:46.770Z,95.30
2022-09-10T09:02:01.927Z,95.20
2022-09-10T09:03:18.738Z,95.10
2022-09-10T09:04:36.914Z,95.20
2022-09-10T09:05:50.345Z,95.00
2022-09-10T09:07:00.600Z,94.70
2022-09-10T09:08:03.825Z,94.40
2022-09-10T09:09:14.781Z,94.00
2022-09-10T09:10:26.426Z,94.10
2022-09-10T09:11:39.535Z,94.40
2022-09-10T09:12:50.906Z,94.60
2022-09-10T09:13:58.253Z,94.90
2022-09-10T09:15:20.966Z,94.80
2022-09-10T09:16:35.213Z,95.00
2022-09-10T09:17:49.030Z,95.10
2022-09-10T09:19:28.698Z,95.20
2022-09-10T09:20:36.576Z,95.30
2022-09-10T09:21:53.129Z,95.50
2022-09-10T09:23:15.138Z,95.70
2022-09-10T09:24:49.397Z,95.50
2022-09-10T09:26:12.776Z,95.50
2022-09-10T09:27:20.160Z,95.00
2022-09-10T09:28:24.404Z,94.80
2022-09-10T09:29:36.151Z,94.50
2022-09-10T09:30:49.413Z,94.10
2022-09-10T09:31:58.065Z,94.20
2022-09-10T09:33:12.621Z,94.30
2022-09-10T09:34:40.417Z,94.30
2022-09-10T09:35:57.763Z,94.60
2022-09-10T09:37:04.496Z,94.90
2022-09-10T09:38:07.655Z,95.40
2022-09-10T09:39:28.035Z,95.10
2022-09-10T09:40:46.106Z,95.20
2022-09-10T09:42:15.987Z,95.30
2022-09-10T09:43:49.658Z,95.60
2022-09-10T09:45:02.272Z,95.60
2022-09-10T09:46:15.932Z,95.80
2022-09-10T09:47:20.076Z,95.80
2022-09-10T09:48:25.178Z,95.70
2022-09-10T09:49:30.286Z,95.80
2022-09-10T09:50:36.251Z,95.80
2022-09-10T09:51:38.322Z,95.90
2022-09-10T09:52:44.089Z,96.00
2022-09-10T09:53:48.457Z,95.90
2022-09-10T09:55:14.382Z,95.70
2022-09-10T09:56:24.930Z,96.00
2022-09-10T09:57:30.531Z,96.20
2022-09-10T09:58:35.320Z,96.50
2022-09-10T09:59:37.395Z,97.40
2022-09-10T10:00:39.310Z,97.90
2022-09-10T10:01:43.108Z,99.20
2022-09-10T10:02:47.181Z,97.50
2022-09-10T10:04:04.227Z,95.30
2022-09-10T10:05:26.552Z,93.70
2022-09-10T10:06:35.130Z,92.70
2022-09-10T10:07:39.443Z,92.50
2022-09-10T10:09:20.498Z,92.30
2022-09-10T10:10:27.976Z,92.40
2022-09-10T10:11:53.920Z,92.50
2022-09-10T10:12:56.371Z,92.40
2022-09-10T10:14:12.947Z,93.00
2022-09-10T10:15:38.900Z,95.70
2022-09-10T10:16:41.006Z,97.80
2022-09-10T10:17:43.585Z,98.60
2022-09-10T10:18:47.520Z,97.40
2022-09-10T10:20:11.546Z,96.10
2022-09-10T10:21:20.310Z,93.20
2022-09-10T10:22:25.798Z,91.30
2022-09-10T10:23:39.307Z,89.40
2022-09-10T10:24:42.806Z,84.00
2022-09-10T10:25:48.633Z,80.10
2022-09-10T10:26:50.844Z,77.00
2022-09-10T10:27:54.553Z,72.80
2022-09-10T10:29:18.571Z,68.00
2022-09-10T10:30:22.020Z,65.30
2022-09-10T10:31:24.196Z,63.10
2022-09-10T10:32:47.584Z,59.90
2022-09-10T10:34:17.114Z,59.60
2022-09-10T10:35:34.557Z,60.30
2022-09-10T10:36:44.242Z,59.20
2022-09-10T10:38:07.399Z,61.40
2022-09-10T10:39:14.367Z,63.50
2022-09-10T10:40:43.144Z,65.90
2022-09-10T10:42:06.737Z,67.40
2022-09-10T10:43:24.899Z,68.10
2022-09-10T10:44:46.013Z,69.90
2022-09-10T10:45:49.161Z,71.70
2022-09-10T10:47:08.325Z,72.40
2022-09-10T10:48:24.509Z,73.40
2022-09-10T10:49:45.160Z,74.60
2022-09-10T10:50:58.943Z,75.70
2022-09-10T10:52:28.113Z,77.10
2022-09-10T10:53:43.252Z,77.40
2022-09-10T10:54:51.410Z,77.90
2022-09-10T10:56:03.146Z,78.20
2022-09-10T10:57:43.236Z,78.40
2022-09-10T10:59:19.195Z,80.20
2022-09-10T11:00:22.166Z,82.70
2022-09-10T11:01:27.801Z,81.70
2022-09-10T11:02:55.133Z,80.80
2022-09-10T11:04:43.614Z,80.10
2022-09-10T11:05:58.801Z,80.30
2022-09-10T11:07:27.828Z,81.50
2022-09-10T11:08:51.031Z,81.40
2022-09-10T11:10:03.921Z,83.90
2022-09-10T11:11:13.793Z,83.30
2022-09-10T11:12:30.113Z,82.30
2022-09-10T11:13:42.298Z,83.40
2022-09-10T11:15:30.640Z,84.90
2022-09-10T11:16:41.628Z,85.30
2022-09-10T11:17:53.843Z,86.50
2022-09-10T11:19:17.736Z,86.80
2022-09-10T11:20:29.376Z,87.30
2022-09-10T11:21:43.008Z,87.90
2022-09-10T11:23:10.355Z,88.30
2022-09-10T11:24:27.057Z,88.40
2022-09-10T11:25:32.316Z,88.70
2022-09-10T11:26:54.140Z,89.10
2022-09-10T11:28:19.593Z,89.00
2022-09-10T11:29:41.685Z,88.60
2022-09-10T11:30:50.935Z,88.10
2022-09-10T11:32:10.532Z,89.00
2022-09-10T11:33:41.909Z,89.20
2022-09-10T11:35:14.354Z,90.00
2022-09-10T11:36:25.233Z,87.80
2022-09-10T11:38:07.748Z,88.60
2022-09-10T11:39:33.479Z,87.60
2022-09-10T11:41:12.206Z,87.60
2022-09-10T11:42:27.701Z,87.60
2022-09-10T11:43:52.160Z,87.20
2022-09-10T11:45:00.915Z,86.70
2022-09-10T11:46:08.073Z,86.90
2022-09-10T11:47:29.155Z,86.30
2022-09-10T11:48:41.804Z,84.90
2022-09-10T11:49:58.235Z,83.80
2022-09-10T11:51:30.551Z,83.40
2022-09-10T11:52:34.805Z,83.80
2022-09-10T11:53:37.263Z,84.00
2022-09-10T11:54:42.638Z,84.40
2022-09-10T11:56:05.065Z,84.30
2022-09-10T11:57:31.616Z,85.00
2022-09-10T11:58:45.899Z,86.10
2022-09-10T12:00:03.843Z,85.90
2022-09-10T12:01:31.991Z,86.90
2022-09-10T12:03:03.529Z,87.00
2022-09-10T12:04:39.804Z,87.90
2022-09-10T12:06:12.186Z,86.90
2022-09-10T12:07:26.452Z,88.80
2022-09-10T12:08:40.539Z,88.60
2022-09-10T12:10:14.138Z,88.90
2022-09-10T12:11:35.513Z,88.80
2022-09-10T12:12:45.772Z,88.30
2022-09-10T12:13:50.129Z,88.30
2022-09-10T12:14:53.097Z,88.20
2022-09-10T12:15:59.684Z,87.30
2022-09-10T12:17:13.511Z,85.90
2022-09-10T12:18:23.057Z,87.60
2022-09-10T12:19:34.115Z,88.40
2022-09-10T12:20:44.406Z,88.40
2022-09-10T12:22:06.588Z,88.50
2022-09-10T12:23:18.728Z,87.60
2022-09-10T12:24:35.193Z,87.70
2022-09-10T12:25:37.100Z,87.30
2022-09-10T12:26:45.074Z,87.40
2022-09-10T12:27:57.210Z,87.90
2022-09-10T12:29:06.745Z,88.70
2022-09-10T12:30:29.392Z,89.00
2022-09-10T12:32:16.195Z,89.30
2022-09-10T12:33:21.865Z,90.00
2022-09-10T12:34:24.139Z,90.40
2022-09-10T12:35:36.456Z,90.40
2022-09-10T12:36:40.115Z,90.40
2022-09-10T12:37:42.048Z,90.40
2022-09-10T12:38:55.531Z,90.50
2022-09-10T12:40:25.835Z,90.50
2022-09-10T12:41:27.821Z,90.50
2022-09-10T12:42:34.408Z,90.10
2022-09-10T12:43:44.678Z,90.00
2022-09-10T12:44:47.112Z,89.50
2022-09-10T12:46:12.170Z,89.10
2022-09-10T12:47:37.428Z,88.80
2022-09-10T12:48:53.887Z,88.20
2022-09-10T12:50:03.299Z,87.80
2022-09-10T12:51:21.607Z,87.40
2022-09-10T12:52:34.084Z,87.60
2022-09-10T12:53:55.236Z,87.30
2022-09-10T12:55:36.854Z,86.70
2022-09-10T12:57:17.397Z,86.20
2022-09-10T12:58:59.137Z,86.10
2022-09-10T13:00:16.627Z,86.20
2022-09-10T13:01:41.553Z,86.20
2022-09-10T13:03:08.518Z,86.30
2022-09-10T13:04:38.104Z,86.00
2022-09-10T13:05:48.615Z,85.90
2022-09-10T13:06:55.340Z,84.90
2022-09-10T13:08:28.270Z,84.80
2022-09-10T13:09:33.943Z,85.00
2022-09-10T13:10:36.269Z,85.50
2022-09-10T13:11:43.653Z,84.30
2022-09-10T13:12:47.447Z,83.80
2022-09-10T13:13:50.042Z,84.30
2022-09-10T13:14:56.697Z,83.60
2022-09-10T13:16:00.383Z,84.00
2022-09-10T13:17:04.356Z,84.40
2022-09-10T13:18:09.038Z,84.40
2022-09-10T13:19:13.769Z,84.80
2022-09-10T13:20:23.443Z,85.30
2022-09-10T13:21:25.245Z,85.80
2022-09-10T13:22:31.742Z,85.90
2022-09-10T13:23:44.101Z,86.30
2022-09-10T13:25:33.489Z,87.00
2022-09-10T13:26:49.636Z,87.40
2022-09-10T13:27:53.705Z,87.40
2022-09-10T13:29:00.725Z,87.40
2022-09-10T13:30:23.354Z,86.80
2022-09-10T13:31:33.923Z,86.40
2022-09-10T13:32:46.746Z,85.00
2022-09-10T13:33:52.152Z,85.60
2022-09-10T13:35:17.103Z,85.60
2022-09-10T13:36:41.863Z,85.50
2022-09-10T13:37:56.645Z,86.70
2022-09-10T13:39:20.937Z,86.60
2022-09-10T13:40:43.389Z,86.10
2022-09-10T13:42:05.365Z,84.80
2022-09-10T13:43:30.798Z,86.30
2022-09-10T13:45:10.463Z,87.00
2022-09-10T13:46:32.105Z,84.20
2022-09-10T13:47:42.163Z,84.80
2022-09-10T13:48:51.586Z,83.90
2022-09-10T13:50:01.381Z,85.10
2022-09-10T13:51:30.964Z,85.10
2022-09-10T13:52:37.383Z,85.70
2022-09-10T13:53:49.108Z,86.30
2022-09-10T13:54:55.441Z,86.70
2022-09-10T13:56:01.670Z,86.80
2022-09-10T13:57:22.330Z,87.20
2022-09-10T13:58:28.826Z,87.40
2022-09-10T13:59:34.502Z,87.70
2022-09-10T14:01:01.491Z,87.80
2022-09-10T14:02:05.121Z,87.60
2022-09-10T14:03:16.848Z,88.30
2022-09-10T14:04:35.677Z,88.70
2022-09-10T14:05:50.279Z,88.50
2022-09-10T14:07:04.450Z,88.70
2022-09-10T14:08:30.842Z,88.70
2022-09-10T14:09:34.622Z,88.30
2022-09-10T14:10:53.241Z,88.30
2022-09-10T14:11:56.367Z,88.70
2022-09-10T14:13:00.159Z,88.60
2022-09-10T14:14:06.744Z,87.10
2022-09-10T14:15:17.727Z,88.00
2022-09-10T14:16:30.257Z,87.30
2022-09-10T14:17:43.195Z,86.70
2022-09-10T14:18:51.102Z,86.70
2022-09-10T14:19:57.983Z,86.70
2022-09-10T14:21:00.786Z,86.90
2022-09-10T14:22:07.153Z,85.10
2022-09-10T14:23:16.523Z,85.80
2022-09-10T14:24:44.283Z,84.80
2022-09-10T14:25:46.836Z,85.10
2022-09-10T14:27:06.122Z,86.50
2022-09-10T14:28:16.585Z,85.50
2022-09-10T14:29:25.391Z,85.40
2022-09-10T14:30:32.997Z,84.70
2022-09-10T14:31:37.313Z,85.00
2022-09-10T14:32:40.000Z,85.00
2022-09-10T14:33:41.923Z,84.10
2022-09-10T14:34:43.789Z,84.10
2022-09-10T14:35:49.674Z,84.60
2022-09-10T14:36:51.546Z,84.40
2022-09-10T14:37:54.158Z,84.40
2022-09-10T14:39:06.814Z,85.90
2022-09-10T14:40:20.942Z,84.80
2022-09-10T14:41:25.990Z,84.80
2022-09-10T14:42:35.506Z,85.10
2022-09-10T14:43:40.438Z,85.40
2022-09-10T14:44:43.318Z,86.30
2022-09-10T14:45:47.909Z,84.30
2022-09-10T14:47:07.711Z,84.20
2022-09-10T14:48:38.656Z,84.50
2022-09-10T14:49:41.764Z,84.70
2022-09-10T14:50:44.011Z,85.10
2022-09-10T14:51:45.974Z,85.10